Chautauqua County-Jamestown Airport
KJHW : now visible

Airfield :











YOU CAN JOIN US ON...

 
LOGIN :

Register | Disclaimer

   EN    FR    IT 

 









Legend :    VFR   Marginal VFR   IFR   Intensive IFR   Very Intensive IFR
Visi :
Ceiling :
>= 8 km
>= 3000ft
5 to 8 km
1000 to 3000 ft
1500m to 5 km
500 to 1000 ft
800 to 1500m
200 to 500 ft
< 800m
< 200 ft
Symbols :   Thunderstorms  Fog  Heavy snow  Heavy precipitations  Wind > 20 kt






- Airport Elevation : 1723 ft


KJHW - Chautauqua County-Jamestown

CURRENT METAR :
  • 230756Z AUTO 30013KT 6SM -SN FEW017 BKN034 OVC055 M08/M11 A3001 RMK AO2 SLP195 P0000 T10831111 FZRANO

EXPIRED METARs :
  • 230739Z AUTO 30013KT 6SM -SN FEW015 BKN035 OVC048 M08/M11 A3001 RMK AO2 P0000 FZRANO
  • 230726Z AUTO 30014KT 4SM -SN FEW012 BKN026 OVC049 M08/M11 A3001 RMK AO2 P0000 FZRANO
  • 230708Z AUTO 30012G20KT 2 1/2SM -SN FEW009 BKN020 OVC049 M08/M11 A3000 RMK AO2 VIS 1 1/2V5 P0000 FZRANO
  • 230656Z AUTO 30013KT 7SM -SN FEW007 OVC049 M09/M11 A2999 RMK AO2 SLP189 P0000 T10891111 FZRANO
  • 230647Z AUTO 30012KT 8SM -SN FEW007 SCT021 OVC049 M09/M11 A2999 RMK AO2 P0000 FZRANO
  • 230634Z AUTO 30012KT 1 1/4SM -SN SCT007 BKN013 OVC049 M08/M11 A2998 RMK AO2 P0000 FZRANO
  • 230556Z AUTO 29010KT 8SM -SN BKN019 BKN027 OVC049 M09/M11 A2997 RMK AO2 SLP182 P0000 60000 T10891111 11072 21089 51003 FZRANO
  • 230531Z AUTO 26007KT 4SM -SN BR SCT021 BKN028 OVC046 M09/M11 A2997 RMK AO2 P0000 FZRANO

TAF KJHW
Valid from the 23 at 06:00 until the 24 at 06:00 UTC


230539Z 2306/2406 27010KT 3SM -SHSN OVC025
TEMPO 2306/2310 1SM -SHSN OVC015
FM231400 30014G22KT 6SM -SHSN OVC025
FM232300 30005KT P6SM VCSH BKN025
KZOB FIR / North America



MET'MAP, your aeronautical weather chart ! - Copyright ORBIFLY December 2007 - Disclaimer

ORBIFLY MET'MAP TEAM :

Programming & Development : Alexandra Zaïnal
Concept & original design : Baudouin d'Aumeries
Assistance for programming : Marc-Olivier Méhu
Technical & hardware support : Manuel Goepfert

Contact : metmap@orbifly.com




SOURCES & CREDITS :

   NOAA       Earth
Advisory